sensor_id;sensor_type;location;lat;lon;timestamp;P1;durP1;ratioP1;P2;durP2;ratioP2
23121;SDS011;11730;51.248;22.534;2022-12-18T00:02:15;131.30;;;40.63;;
23121;SDS011;11730;51.248;22.534;2022-12-18T00:04:42;119.38;;;36.20;;
23121;SDS011;11730;51.248;22.534;2022-12-18T00:07:09;127.63;;;42.58;;
23121;SDS011;11730;51.248;22.534;2022-12-18T00:09:36;124.35;;;40.33;;
23121;SDS011;11730;51.248;22.534;2022-12-18T00:12:05;116.75;;;37.60;;
23121;SDS011;11730;51.248;22.534;2022-12-18T00:14:41;126.55;;;36.85;;
23121;SDS011;11730;51.248;22.534;2022-12-18T00:17:08;108.38;;;39.15;;
23121;SDS011;11730;51.248;22.534;2022-12-18T00:19:35;125.30;;;38.83;;
23121;SDS011;11730;51.248;22.534;2022-12-18T00:22:02;82.78;;;26.75;;
23121;SDS011;11730;51.248;22.534;2022-12-18T00:24:29;109.07;;;33.13;;
23121;SDS011;11730;51.248;22.534;2022-12-18T00:26:56;64.20;;;25.27;;
23121;SDS011;11730;51.248;22.534;2022-12-18T00:29:23;94.95;;;33.92;;
23121;SDS011;11730;51.248;22.534;2022-12-18T00:31:50;89.97;;;31.52;;
23121;SDS011;11730;51.248;22.534;2022-12-18T00:34:17;83.07;;;28.08;;
23121;SDS011;11730;51.248;22.534;2022-12-18T00:36:43;88.80;;;28.35;;
23121;SDS011;11730;51.248;22.534;2022-12-18T00:39:13;89.15;;;31.90;;
23121;SDS011;11730;51.248;22.534;2022-12-18T00:41:40;91.90;;;32.88;;
23121;SDS011;11730;51.248;22.534;2022-12-18T00:44:25;85.93;;;29.42;;
23121;SDS011;11730;51.248;22.534;2022-12-18T00:46:52;80.78;;;30.05;;
23121;SDS011;11730;51.248;22.534;2022-12-18T00:49:19;57.45;;;20.10;;
23121;SDS011;11730;51.248;22.534;2022-12-18T00:51:47;86.40;;;27.25;;
23121;SDS011;11730;51.248;22.534;2022-12-18T00:54:15;104.20;;;33.50;;
23121;SDS011;11730;51.248;22.534;2022-12-18T00:56:42;91.50;;;32.85;;
23121;SDS011;11730;51.248;22.534;2022-12-18T00:59:15;96.60;;;30.53;;
23121;SDS011;11730;51.248;22.534;2022-12-18T01:01:42;91.25;;;29.42;;
23121;SDS011;11730;51.248;22.534;2022-12-18T01:04:10;90.10;;;30.25;;
23121;SDS011;11730;51.248;22.534;2022-12-18T01:06:37;76.82;;;27.98;;
23121;SDS011;11730;51.248;22.534;2022-12-18T01:09:05;74.55;;;25.58;;
23121;SDS011;11730;51.248;22.534;2022-12-18T01:11:32;66.35;;;26.15;;
23121;SDS011;11730;51.248;22.534;2022-12-18T01:13:59;82.80;;;28.13;;
23121;SDS011;11730;51.248;22.534;2022-12-18T01:16:26;67.30;;;23.40;;
23121;SDS011;11730;51.248;22.534;2022-12-18T01:18:53;71.10;;;25.05;;
23121;SDS011;11730;51.248;22.534;2022-12-18T01:21:21;72.57;;;25.35;;
23121;SDS011;11730;51.248;22.534;2022-12-18T01:23:53;52.90;;;19.42;;
23121;SDS011;11730;51.248;22.534;2022-12-18T01:26:21;70.03;;;28.30;;
23121;SDS011;11730;51.248;22.534;2022-12-18T01:28:48;86.15;;;26.90;;
23121;SDS011;11730;51.248;22.534;2022-12-18T01:33:45;76.72;;;25.73;;
23121;SDS011;11730;51.248;22.534;2022-12-18T01:36:24;65.03;;;24.73;;
23121;SDS011;11730;51.248;22.534;2022-12-18T01:38:54;61.00;;;22.58;;
23121;SDS011;11730;51.248;22.534;2022-12-18T01:41:22;65.93;;;21.63;;
23121;SDS011;11730;51.248;22.534;2022-12-18T01:46:21;62.35;;;21.73;;
23121;SDS011;11730;51.248;22.534;2022-12-18T01:48:50;65.53;;;22.50;;
23121;SDS011;11730;51.248;22.534;2022-12-18T01:51:23;73.10;;;25.42;;
23121;SDS011;11730;51.248;22.534;2022-12-18T01:53:51;80.05;;;25.88;;
23121;SDS011;11730;51.248;22.534;2022-12-18T01:56:19;74.10;;;27.42;;
23121;SDS011;11730;51.248;22.534;2022-12-18T01:58:52;71.15;;;25.10;;
23121;SDS011;11730;51.248;22.534;2022-12-18T02:01:29;74.00;;;27.67;;
23121;SDS011;11730;51.248;22.534;2022-12-18T02:09:34;66.60;;;25.10;;
23121;SDS011;11730;51.248;22.534;2022-12-18T02:12:15;63.35;;;24.88;;
23121;SDS011;11730;51.248;22.534;2022-12-18T02:14:59;82.47;;;26.38;;
23121;SDS011;11730;51.248;22.534;2022-12-18T02:17:55;60.67;;;23.40;;
23121;SDS011;11730;51.248;22.534;2022-12-18T02:20:28;79.85;;;25.13;;
23121;SDS011;11730;51.248;22.534;2022-12-18T02:28:35;79.93;;;24.55;;
23121;SDS011;11730;51.248;22.534;2022-12-18T02:31:08;79.18;;;24.00;;
23121;SDS011;11730;51.248;22.534;2022-12-18T02:33:40;62.95;;;22.55;;
23121;SDS011;11730;51.248;22.534;2022-12-18T02:36:08;61.28;;;23.17;;
23121;SDS011;11730;51.248;22.534;2022-12-18T02:38:37;65.43;;;24.02;;
23121;SDS011;11730;51.248;22.534;2022-12-18T02:41:05;70.95;;;23.58;;
23121;SDS011;11730;51.248;22.534;2022-12-18T02:43:32;66.38;;;22.63;;
23121;SDS011;11730;51.248;22.534;2022-12-18T02:46:00;75.35;;;25.13;;
23121;SDS011;11730;51.248;22.534;2022-12-18T02:48:48;57.85;;;21.23;;
23121;SDS011;11730;51.248;22.534;2022-12-18T02:53:51;66.07;;;23.20;;
23121;SDS011;11730;51.248;22.534;2022-12-18T02:56:28;67.40;;;23.45;;
23121;SDS011;11730;51.248;22.534;2022-12-18T02:59:16;65.63;;;24.45;;
23121;SDS011;11730;51.248;22.534;2022-12-18T03:01:56;68.65;;;22.80;;
23121;SDS011;11730;51.248;22.534;2022-12-18T03:04:31;75.85;;;23.02;;
23121;SDS011;11730;51.248;22.534;2022-12-18T03:07:09;66.80;;;24.80;;
23121;SDS011;11730;51.248;22.534;2022-12-18T03:09:42;71.05;;;24.75;;
23121;SDS011;11730;51.248;22.534;2022-12-18T03:12:19;78.10;;;24.98;;
23121;SDS011;11730;51.248;22.534;2022-12-18T03:14:59;64.90;;;25.23;;
23121;SDS011;11730;51.248;22.534;2022-12-18T03:17:45;55.58;;;20.50;;
23121;SDS011;11730;51.248;22.534;2022-12-18T03:20:18;69.82;;;26.20;;
23121;SDS011;11730;51.248;22.534;2022-12-18T03:22:53;68.00;;;25.42;;
23121;SDS011;11730;51.248;22.534;2022-12-18T03:25:26;65.28;;;24.80;;
23121;SDS011;11730;51.248;22.534;2022-12-18T03:27:55;68.35;;;25.90;;
23121;SDS011;11730;51.248;22.534;2022-12-18T03:30:25;71.97;;;26.27;;
23121;SDS011;11730;51.248;22.534;2022-12-18T03:35:36;65.03;;;22.67;;
23121;SDS011;11730;51.248;22.534;2022-12-18T03:38:06;68.28;;;25.15;;
23121;SDS011;11730;51.248;22.534;2022-12-18T03:43:10;63.08;;;24.58;;
23121;SDS011;11730;51.248;22.534;2022-12-18T03:45:48;56.17;;;22.73;;
23121;SDS011;11730;51.248;22.534;2022-12-18T03:51:03;56.47;;;23.50;;
23121;SDS011;11730;51.248;22.534;2022-12-18T03:53:39;65.90;;;26.15;;
23121;SDS011;11730;51.248;22.534;2022-12-18T03:56:16;69.75;;;27.52;;
23121;SDS011;11730;51.248;22.534;2022-12-18T03:58:45;63.08;;;24.52;;
23121;SDS011;11730;51.248;22.534;2022-12-18T04:01:14;70.18;;;28.00;;
23121;SDS011;11730;51.248;22.534;2022-12-18T04:03:44;72.68;;;30.45;;
23121;SDS011;11730;51.248;22.534;2022-12-18T04:06:14;70.65;;;28.88;;
23121;SDS011;11730;51.248;22.534;2022-12-18T04:08:42;76.38;;;29.77;;
23121;SDS011;11730;51.248;22.534;2022-12-18T04:11:10;56.75;;;23.95;;
23121;SDS011;11730;51.248;22.534;2022-12-18T04:13:37;75.28;;;31.73;;
23121;SDS011;11730;51.248;22.534;2022-12-18T04:16:05;82.43;;;33.00;;
23121;SDS011;11730;51.248;22.534;2022-12-18T04:18:32;75.95;;;31.67;;
23121;SDS011;11730;51.248;22.534;2022-12-18T04:21:00;69.75;;;31.40;;
23121;SDS011;11730;51.248;22.534;2022-12-18T04:23:27;77.43;;;30.70;;
23121;SDS011;11730;51.248;22.534;2022-12-18T04:25:54;70.07;;;30.50;;
23121;SDS011;11730;51.248;22.534;2022-12-18T04:28:21;72.35;;;29.80;;
23121;SDS011;11730;51.248;22.534;2022-12-18T04:30:48;72.28;;;29.75;;
23121;SDS011;11730;51.248;22.534;2022-12-18T04:33:15;72.18;;;30.58;;
23121;SDS011;11730;51.248;22.534;2022-12-18T04:35:42;61.95;;;27.73;;
23121;SDS011;11730;51.248;22.534;2022-12-18T04:38:09;57.95;;;26.35;;
23121;SDS011;11730;51.248;22.534;2022-12-18T04:40:37;66.90;;;26.00;;
23121;SDS011;11730;51.248;22.534;2022-12-18T04:43:06;50.50;;;23.15;;
23121;SDS011;11730;51.248;22.534;2022-12-18T04:45:33;63.88;;;24.27;;
23121;SDS011;11730;51.248;22.534;2022-12-18T04:48:00;48.30;;;21.17;;
23121;SDS011;11730;51.248;22.534;2022-12-18T04:50:29;45.80;;;18.92;;
23121;SDS011;11730;51.248;22.534;2022-12-18T04:52:56;52.45;;;22.83;;
23121;SDS011;11730;51.248;22.534;2022-12-18T04:55:23;49.55;;;21.58;;
23121;SDS011;11730;51.248;22.534;2022-12-18T04:57:51;47.00;;;21.70;;
23121;SDS011;11730;51.248;22.534;2022-12-18T05:00:19;51.15;;;21.25;;
23121;SDS011;11730;51.248;22.534;2022-12-18T05:02:47;48.00;;;21.27;;
23121;SDS011;11730;51.248;22.534;2022-12-18T05:05:14;51.38;;;22.67;;
23121;SDS011;11730;51.248;22.534;2022-12-18T05:07:41;46.83;;;22.00;;
23121;SDS011;11730;51.248;22.534;2022-12-18T05:10:08;47.13;;;21.42;;
23121;SDS011;11730;51.248;22.534;2022-12-18T05:12:35;44.70;;;19.88;;
23121;SDS011;11730;51.248;22.534;2022-12-18T05:15:22;48.03;;;21.98;;
23121;SDS011;11730;51.248;22.534;2022-12-18T05:17:50;43.38;;;20.55;;
23121;SDS011;11730;51.248;22.534;2022-12-18T05:20:17;40.03;;;18.90;;
23121;SDS011;11730;51.248;22.534;2022-12-18T05:22:44;43.15;;;20.58;;
23121;SDS011;11730;51.248;22.534;2022-12-18T05:25:11;42.05;;;20.15;;
23121;SDS011;11730;51.248;22.534;2022-12-18T05:27:38;41.72;;;18.88;;
23121;SDS011;11730;51.248;22.534;2022-12-18T05:30:05;36.58;;;17.95;;
23121;SDS011;11730;51.248;22.534;2022-12-18T05:32:32;42.90;;;19.40;;
23121;SDS011;11730;51.248;22.534;2022-12-18T05:34:59;42.47;;;18.90;;
23121;SDS011;11730;51.248;22.534;2022-12-18T05:37:26;43.83;;;20.42;;
23121;SDS011;11730;51.248;22.534;2022-12-18T05:39:53;46.92;;;21.67;;
23121;SDS011;11730;51.248;22.534;2022-12-18T05:42:20;40.97;;;19.02;;
23121;SDS011;11730;51.248;22.534;2022-12-18T05:44:47;43.10;;;20.30;;
23121;SDS011;11730;51.248;22.534;2022-12-18T05:47:14;46.17;;;18.73;;
23121;SDS011;11730;51.248;22.534;2022-12-18T05:49:41;43.80;;;20.77;;
23121;SDS011;11730;51.248;22.534;2022-12-18T05:52:08;45.15;;;19.83;;
23121;SDS011;11730;51.248;22.534;2022-12-18T05:54:35;45.30;;;21.30;;
23121;SDS011;11730;51.248;22.534;2022-12-18T05:57:02;39.28;;;19.02;;
23121;SDS011;11730;51.248;22.534;2022-12-18T05:59:29;40.28;;;19.05;;
23121;SDS011;11730;51.248;22.534;2022-12-18T06:01:56;37.53;;;17.05;;
23121;SDS011;11730;51.248;22.534;2022-12-18T06:04:23;35.90;;;17.70;;
23121;SDS011;11730;51.248;22.534;2022-12-18T06:06:52;39.88;;;18.17;;
23121;SDS011;11730;51.248;22.534;2022-12-18T06:09:19;35.22;;;17.67;;
23121;SDS011;11730;51.248;22.534;2022-12-18T06:11:46;38.08;;;19.05;;
23121;SDS011;11730;51.248;22.534;2022-12-18T06:14:13;39.00;;;19.67;;
23121;SDS011;11730;51.248;22.534;2022-12-18T06:16:40;43.15;;;18.50;;
23121;SDS011;11730;51.248;22.534;2022-12-18T06:19:07;40.95;;;19.05;;
23121;SDS011;11730;51.248;22.534;2022-12-18T06:21:34;47.13;;;19.60;;
23121;SDS011;11730;51.248;22.534;2022-12-18T06:24:01;44.85;;;20.70;;
23121;SDS011;11730;51.248;22.534;2022-12-18T06:26:28;49.72;;;21.25;;
23121;SDS011;11730;51.248;22.534;2022-12-18T06:28:55;48.90;;;21.10;;
23121;SDS011;11730;51.248;22.534;2022-12-18T06:31:22;40.13;;;21.00;;
23121;SDS011;11730;51.248;22.534;2022-12-18T06:33:50;42.33;;;20.15;;
23121;SDS011;11730;51.248;22.534;2022-12-18T06:36:17;44.60;;;20.17;;
23121;SDS011;11730;51.248;22.534;2022-12-18T06:38:44;43.03;;;21.92;;
23121;SDS011;11730;51.248;22.534;2022-12-18T06:41:19;45.83;;;22.20;;
23121;SDS011;11730;51.248;22.534;2022-12-18T06:43:47;51.58;;;22.45;;
23121;SDS011;11730;51.248;22.534;2022-12-18T06:46:14;55.25;;;25.10;;
23121;SDS011;11730;51.248;22.534;2022-12-18T06:48:41;54.70;;;26.08;;
23121;SDS011;11730;51.248;22.534;2022-12-18T06:51:08;52.97;;;24.98;;
23121;SDS011;11730;51.248;22.534;2022-12-18T06:53:35;56.15;;;24.35;;
23121;SDS011;11730;51.248;22.534;2022-12-18T06:56:06;55.10;;;25.20;;
23121;SDS011;11730;51.248;22.534;2022-12-18T06:58:36;46.92;;;22.23;;
23121;SDS011;11730;51.248;22.534;2022-12-18T07:01:05;52.00;;;23.30;;
23121;SDS011;11730;51.248;22.534;2022-12-18T07:03:34;53.08;;;22.70;;
23121;SDS011;11730;51.248;22.534;2022-12-18T07:06:01;47.47;;;22.73;;
23121;SDS011;11730;51.248;22.534;2022-12-18T07:08:28;52.55;;;23.48;;
23121;SDS011;11730;51.248;22.534;2022-12-18T07:10:56;53.63;;;22.88;;
23121;SDS011;11730;51.248;22.534;2022-12-18T07:13:23;50.90;;;22.58;;
23121;SDS011;11730;51.248;22.534;2022-12-18T07:15:50;48.00;;;22.88;;
23121;SDS011;11730;51.248;22.534;2022-12-18T07:18:17;54.85;;;22.08;;
23121;SDS011;11730;51.248;22.534;2022-12-18T07:20:44;50.50;;;22.55;;
23121;SDS011;11730;51.248;22.534;2022-12-18T07:23:12;50.85;;;22.35;;
23121;SDS011;11730;51.248;22.534;2022-12-18T07:25:40;53.10;;;23.25;;
23121;SDS011;11730;51.248;22.534;2022-12-18T07:28:07;50.05;;;22.90;;
23121;SDS011;11730;51.248;22.534;2022-12-18T07:30:40;55.55;;;23.50;;
23121;SDS011;11730;51.248;22.534;2022-12-18T07:33:07;54.55;;;22.92;;
23121;SDS011;11730;51.248;22.534;2022-12-18T07:35:34;52.00;;;24.40;;
23121;SDS011;11730;51.248;22.534;2022-12-18T07:38:01;50.63;;;22.55;;
23121;SDS011;11730;51.248;22.534;2022-12-18T07:40:28;54.03;;;23.73;;
23121;SDS011;11730;51.248;22.534;2022-12-18T07:42:55;65.35;;;26.52;;
23121;SDS011;11730;51.248;22.534;2022-12-18T07:45:22;60.45;;;26.98;;
23121;SDS011;11730;51.248;22.534;2022-12-18T07:47:49;53.28;;;22.92;;
23121;SDS011;11730;51.248;22.534;2022-12-18T07:50:16;47.85;;;21.70;;
23121;SDS011;11730;51.248;22.534;2022-12-18T07:52:43;59.05;;;23.35;;
23121;SDS011;11730;51.248;22.534;2022-12-18T07:55:09;52.80;;;23.75;;
23121;SDS011;11730;51.248;22.534;2022-12-18T07:57:36;53.40;;;23.25;;
23121;SDS011;11730;51.248;22.534;2022-12-18T08:00:23;51.75;;;23.23;;
23121;SDS011;11730;51.248;22.534;2022-12-18T08:02:50;53.03;;;23.42;;
23121;SDS011;11730;51.248;22.534;2022-12-18T08:05:17;48.05;;;22.20;;
23121;SDS011;11730;51.248;22.534;2022-12-18T08:07:45;51.53;;;23.10;;
23121;SDS011;11730;51.248;22.534;2022-12-18T08:10:12;48.85;;;22.98;;
23121;SDS011;11730;51.248;22.534;2022-12-18T08:12:39;55.80;;;24.60;;
23121;SDS011;11730;51.248;22.534;2022-12-18T08:15:06;65.15;;;24.92;;
23121;SDS011;11730;51.248;22.534;2022-12-18T08:17:33;46.78;;;22.42;;
23121;SDS011;11730;51.248;22.534;2022-12-18T08:20:00;56.00;;;23.27;;
23121;SDS011;11730;51.248;22.534;2022-12-18T08:22:27;49.97;;;22.98;;
23121;SDS011;11730;51.248;22.534;2022-12-18T08:24:54;52.92;;;22.73;;
23121;SDS011;11730;51.248;22.534;2022-12-18T08:27:21;51.83;;;22.45;;
23121;SDS011;11730;51.248;22.534;2022-12-18T08:29:56;49.88;;;23.45;;
23121;SDS011;11730;51.248;22.534;2022-12-18T08:32:24;55.60;;;22.20;;
23121;SDS011;11730;51.248;22.534;2022-12-18T08:34:52;43.63;;;21.17;;
23121;SDS011;11730;51.248;22.534;2022-12-18T08:37:19;52.85;;;22.25;;
23121;SDS011;11730;51.248;22.534;2022-12-18T08:39:46;54.00;;;22.13;;
23121;SDS011;11730;51.248;22.534;2022-12-18T08:42:13;48.67;;;21.55;;
23121;SDS011;11730;51.248;22.534;2022-12-18T08:44:58;57.83;;;22.85;;
23121;SDS011;11730;51.248;22.534;2022-12-18T08:47:25;49.15;;;23.13;;
23121;SDS011;11730;51.248;22.534;2022-12-18T08:49:52;76.30;;;32.33;;
23121;SDS011;11730;51.248;22.534;2022-12-18T08:52:19;57.25;;;23.70;;
23121;SDS011;11730;51.248;22.534;2022-12-18T08:54:46;49.85;;;21.75;;
23121;SDS011;11730;51.248;22.534;2022-12-18T08:57:13;54.83;;;21.88;;
23121;SDS011;11730;51.248;22.534;2022-12-18T08:59:40;54.60;;;24.05;;
23121;SDS011;11730;51.248;22.534;2022-12-18T09:02:08;59.47;;;22.88;;
23121;SDS011;11730;51.248;22.534;2022-12-18T09:04:37;54.75;;;23.20;;
23121;SDS011;11730;51.248;22.534;2022-12-18T09:07:06;47.58;;;21.48;;
23121;SDS011;11730;51.248;22.534;2022-12-18T09:09:33;52.13;;;22.73;;
23121;SDS011;11730;51.248;22.534;2022-12-18T09:11:59;45.03;;;21.88;;
23121;SDS011;11730;51.248;22.534;2022-12-18T09:14:26;51.88;;;23.20;;
23121;SDS011;11730;51.248;22.534;2022-12-18T09:16:53;53.97;;;24.67;;
23121;SDS011;11730;51.248;22.534;2022-12-18T09:19:21;53.30;;;23.88;;
23121;SDS011;11730;51.248;22.534;2022-12-18T09:21:48;59.75;;;24.58;;
23121;SDS011;11730;51.248;22.534;2022-12-18T09:24:15;54.28;;;23.00;;
23121;SDS011;11730;51.248;22.534;2022-12-18T09:26:42;48.65;;;21.92;;
23121;SDS011;11730;51.248;22.534;2022-12-18T09:29:12;51.83;;;23.65;;
23121;SDS011;11730;51.248;22.534;2022-12-18T09:31:41;44.17;;;21.60;;
23121;SDS011;11730;51.248;22.534;2022-12-18T09:34:08;50.80;;;22.92;;
23121;SDS011;11730;51.248;22.534;2022-12-18T09:36:35;53.67;;;25.67;;
23121;SDS011;11730;51.248;22.534;2022-12-18T09:39:02;52.50;;;24.33;;
23121;SDS011;11730;51.248;22.534;2022-12-18T09:44:25;53.30;;;22.75;;
23121;SDS011;11730;51.248;22.534;2022-12-18T09:46:54;49.60;;;22.58;;
23121;SDS011;11730;51.248;22.534;2022-12-18T09:49:33;60.67;;;22.63;;
23121;SDS011;11730;51.248;22.534;2022-12-18T09:52:09;53.53;;;21.95;;
23121;SDS011;11730;51.248;22.534;2022-12-18T09:57:06;47.97;;;22.45;;
23121;SDS011;11730;51.248;22.534;2022-12-18T09:59:37;58.28;;;26.50;;
23121;SDS011;11730;51.248;22.534;2022-12-18T10:02:16;44.65;;;20.08;;
23121;SDS011;11730;51.248;22.534;2022-12-18T10:15:40;34.33;;;17.37;;
23121;SDS011;11730;51.248;22.534;2022-12-18T10:21:13;44.25;;;20.15;;
23121;SDS011;11730;51.248;22.534;2022-12-18T10:23:57;39.67;;;19.30;;
23121;SDS011;11730;51.248;22.534;2022-12-18T10:26:27;42.67;;;20.23;;
23121;SDS011;11730;51.248;22.534;2022-12-18T10:28:54;50.67;;;23.98;;
23121;SDS011;11730;51.248;22.534;2022-12-18T10:31:30;47.10;;;21.83;;
23121;SDS011;11730;51.248;22.534;2022-12-18T10:33:57;42.05;;;21.13;;
23121;SDS011;11730;51.248;22.534;2022-12-18T10:36:24;48.28;;;21.65;;
23121;SDS011;11730;51.248;22.534;2022-12-18T10:38:51;41.67;;;20.88;;
23121;SDS011;11730;51.248;22.534;2022-12-18T10:43:48;47.90;;;21.17;;
23121;SDS011;11730;51.248;22.534;2022-12-18T10:46:35;41.47;;;20.00;;
23121;SDS011;11730;51.248;22.534;2022-12-18T10:49:02;41.00;;;18.25;;
23121;SDS011;11730;51.248;22.534;2022-12-18T10:51:34;34.50;;;16.90;;
23121;SDS011;11730;51.248;22.534;2022-12-18T10:54:05;41.22;;;18.88;;
23121;SDS011;11730;51.248;22.534;2022-12-18T10:56:51;45.70;;;19.63;;
23121;SDS011;11730;51.248;22.534;2022-12-18T10:59:49;55.97;;;24.55;;
23121;SDS011;11730;51.248;22.534;2022-12-18T11:02:39;33.75;;;18.63;;
23121;SDS011;11730;51.248;22.534;2022-12-18T11:10:30;36.85;;;17.23;;
23121;SDS011;11730;51.248;22.534;2022-12-18T11:13:09;36.60;;;17.85;;
23121;SDS011;11730;51.248;22.534;2022-12-18T11:15:36;32.00;;;16.77;;
23121;SDS011;11730;51.248;22.534;2022-12-18T11:18:16;39.65;;;17.48;;
23121;SDS011;11730;51.248;22.534;2022-12-18T11:20:55;33.60;;;17.38;;
23121;SDS011;11730;51.248;22.534;2022-12-18T11:23:31;34.97;;;17.45;;
23121;SDS011;11730;51.248;22.534;2022-12-18T11:25:59;38.00;;;18.10;;
23121;SDS011;11730;51.248;22.534;2022-12-18T11:28:39;33.95;;;18.13;;
23121;SDS011;11730;51.248;22.534;2022-12-18T11:31:24;30.73;;;16.75;;
23121;SDS011;11730;51.248;22.534;2022-12-18T11:36:46;31.92;;;16.02;;
23121;SDS011;11730;51.248;22.534;2022-12-18T11:39:23;29.20;;;15.05;;
23121;SDS011;11730;51.248;22.534;2022-12-18T11:44:42;28.55;;;14.68;;
23121;SDS011;11730;51.248;22.534;2022-12-18T11:50:19;31.02;;;15.15;;
23121;SDS011;11730;51.248;22.534;2022-12-18T11:53:10;29.10;;;14.65;;
23121;SDS011;11730;51.248;22.534;2022-12-18T11:55:44;31.20;;;15.25;;
23121;SDS011;11730;51.248;22.534;2022-12-18T12:12:35;28.00;;;14.43;;
23121;SDS011;11730;51.248;22.534;2022-12-18T12:34:05;32.13;;;16.10;;
23121;SDS011;11730;51.248;22.534;2022-12-18T12:39:20;36.33;;;18.05;;
23121;SDS011;11730;51.248;22.534;2022-12-18T12:41:53;32.80;;;16.23;;
23121;SDS011;11730;51.248;22.534;2022-12-18T12:44:42;31.35;;;16.67;;
23121;SDS011;11730;51.248;22.534;2022-12-18T12:47:22;34.55;;;17.45;;
23121;SDS011;11730;51.248;22.534;2022-12-18T12:49:57;33.65;;;17.02;;
23121;SDS011;11730;51.248;22.534;2022-12-18T12:54:55;32.40;;;16.38;;
23121;SDS011;11730;51.248;22.534;2022-12-18T13:05:47;29.85;;;15.73;;
23121;SDS011;11730;51.248;22.534;2022-12-18T13:08:23;31.10;;;16.73;;
23121;SDS011;11730;51.248;22.534;2022-12-18T13:11:00;29.73;;;16.35;;
23121;SDS011;11730;51.248;22.534;2022-12-18T13:13:50;31.20;;;16.50;;
23121;SDS011;11730;51.248;22.534;2022-12-18T13:16:20;33.38;;;16.88;;
23121;SDS011;11730;51.248;22.534;2022-12-18T13:18:55;37.80;;;17.85;;
23121;SDS011;11730;51.248;22.534;2022-12-18T13:21:28;32.53;;;17.77;;
23121;SDS011;11730;51.248;22.534;2022-12-18T13:27:17;35.35;;;16.48;;
23121;SDS011;11730;51.248;22.534;2022-12-18T13:41:14;38.47;;;17.67;;
23121;SDS011;11730;51.248;22.534;2022-12-18T13:43:50;35.78;;;17.55;;
23121;SDS011;11730;51.248;22.534;2022-12-18T13:48:58;34.85;;;19.40;;
23121;SDS011;11730;51.248;22.534;2022-12-18T13:51:26;38.58;;;18.23;;
23121;SDS011;11730;51.248;22.534;2022-12-18T13:54:05;35.03;;;18.20;;
23121;SDS011;11730;51.248;22.534;2022-12-18T13:56:44;33.53;;;18.00;;
23121;SDS011;11730;51.248;22.534;2022-12-18T13:59:20;34.30;;;17.27;;
23121;SDS011;11730;51.248;22.534;2022-12-18T14:01:55;33.10;;;18.15;;
23121;SDS011;11730;51.248;22.534;2022-12-18T14:04:30;36.33;;;18.30;;
23121;SDS011;11730;51.248;22.534;2022-12-18T14:07:07;37.22;;;18.02;;
23121;SDS011;11730;51.248;22.534;2022-12-18T14:09:42;36.95;;;18.92;;
23121;SDS011;11730;51.248;22.534;2022-12-18T14:12:22;34.15;;;18.33;;
23121;SDS011;11730;51.248;22.534;2022-12-18T14:15:21;33.75;;;16.75;;
23121;SDS011;11730;51.248;22.534;2022-12-18T14:17:50;42.42;;;19.05;;
23121;SDS011;11730;51.248;22.534;2022-12-18T14:20:19;43.05;;;18.77;;
23121;SDS011;11730;51.248;22.534;2022-12-18T14:22:47;33.95;;;18.05;;
23121;SDS011;11730;51.248;22.534;2022-12-18T14:27:46;34.55;;;17.60;;
23121;SDS011;11730;51.248;22.534;2022-12-18T14:30:40;32.35;;;17.15;;
23121;SDS011;11730;51.248;22.534;2022-12-18T14:36:00;30.63;;;16.75;;
23121;SDS011;11730;51.248;22.534;2022-12-18T14:38:30;37.03;;;17.83;;
23121;SDS011;11730;51.248;22.534;2022-12-18T14:41:06;32.05;;;15.82;;
23121;SDS011;11730;51.248;22.534;2022-12-18T14:43:38;30.25;;;15.50;;
23121;SDS011;11730;51.248;22.534;2022-12-18T14:48:53;28.00;;;15.32;;
23121;SDS011;11730;51.248;22.534;2022-12-18T14:51:24;28.98;;;15.13;;
23121;SDS011;11730;51.248;22.534;2022-12-18T14:54:02;33.25;;;16.42;;
23121;SDS011;11730;51.248;22.534;2022-12-18T14:56:45;27.67;;;14.93;;
23121;SDS011;11730;51.248;22.534;2022-12-18T15:04:53;30.88;;;14.85;;
23121;SDS011;11730;51.248;22.534;2022-12-18T15:07:45;28.75;;;16.02;;
23121;SDS011;11730;51.248;22.534;2022-12-18T15:10:20;28.58;;;15.48;;
23121;SDS011;11730;51.248;22.534;2022-12-18T15:20:44;25.92;;;13.18;;
23121;SDS011;11730;51.248;22.534;2022-12-18T15:23:19;28.27;;;15.20;;
23121;SDS011;11730;51.248;22.534;2022-12-18T15:25:47;31.35;;;14.70;;
23121;SDS011;11730;51.248;22.534;2022-12-18T15:28:22;29.05;;;15.07;;
23121;SDS011;11730;51.248;22.534;2022-12-18T15:31:01;31.17;;;15.57;;
23121;SDS011;11730;51.248;22.534;2022-12-18T15:36:11;27.10;;;14.60;;
23121;SDS011;11730;51.248;22.534;2022-12-18T15:38:39;36.00;;;16.63;;
23121;SDS011;11730;51.248;22.534;2022-12-18T15:41:10;25.35;;;14.38;;
23121;SDS011;11730;51.248;22.534;2022-12-18T15:43:44;26.15;;;13.98;;
23121;SDS011;11730;51.248;22.534;2022-12-18T15:46:13;26.73;;;14.40;;
23121;SDS011;11730;51.248;22.534;2022-12-18T15:48:46;25.48;;;14.00;;
23121;SDS011;11730;51.248;22.534;2022-12-18T15:51:28;29.88;;;14.85;;
23121;SDS011;11730;51.248;22.534;2022-12-18T15:53:58;26.80;;;15.30;;
23121;SDS011;11730;51.248;22.534;2022-12-18T15:56:27;25.48;;;14.90;;
23121;SDS011;11730;51.248;22.534;2022-12-18T15:59:16;27.75;;;14.93;;
23121;SDS011;11730;51.248;22.534;2022-12-18T16:01:45;31.60;;;16.05;;
23121;SDS011;11730;51.248;22.534;2022-12-18T16:04:15;33.38;;;16.75;;
23121;SDS011;11730;51.248;22.534;2022-12-18T16:06:43;32.35;;;16.83;;
23121;SDS011;11730;51.248;22.534;2022-12-18T16:09:30;36.33;;;18.42;;
23121;SDS011;11730;51.248;22.534;2022-12-18T16:11:57;39.92;;;20.40;;
23121;SDS011;11730;51.248;22.534;2022-12-18T16:14:25;35.05;;;17.90;;
23121;SDS011;11730;51.248;22.534;2022-12-18T16:16:57;34.95;;;17.33;;
23121;SDS011;11730;51.248;22.534;2022-12-18T16:19:26;32.75;;;17.83;;
23121;SDS011;11730;51.248;22.534;2022-12-18T16:21:54;34.00;;;17.38;;
23121;SDS011;11730;51.248;22.534;2022-12-18T16:24:24;35.70;;;18.40;;
23121;SDS011;11730;51.248;22.534;2022-12-18T16:26:56;44.72;;;21.52;;
23121;SDS011;11730;51.248;22.534;2022-12-18T16:29:25;37.28;;;17.67;;
23121;SDS011;11730;51.248;22.534;2022-12-18T16:31:57;38.67;;;20.13;;
23121;SDS011;11730;51.248;22.534;2022-12-18T16:34:26;47.13;;;22.95;;
23121;SDS011;11730;51.248;22.534;2022-12-18T16:37:02;54.75;;;26.27;;
23121;SDS011;11730;51.248;22.534;2022-12-18T16:39:32;54.42;;;22.83;;
23121;SDS011;11730;51.248;22.534;2022-12-18T16:42:01;61.38;;;29.17;;
23121;SDS011;11730;51.248;22.534;2022-12-18T16:44:31;67.60;;;27.85;;
23121;SDS011;11730;51.248;22.534;2022-12-18T16:46:59;63.13;;;30.75;;
23121;SDS011;11730;51.248;22.534;2022-12-18T16:49:28;100.03;;;42.65;;
23121;SDS011;11730;51.248;22.534;2022-12-18T16:51:55;53.95;;;24.73;;
23121;SDS011;11730;51.248;22.534;2022-12-18T16:54:23;66.80;;;29.35;;
23121;SDS011;11730;51.248;22.534;2022-12-18T16:56:50;80.85;;;34.25;;
23121;SDS011;11730;51.248;22.534;2022-12-18T16:59:17;79.38;;;36.97;;
23121;SDS011;11730;51.248;22.534;2022-12-18T17:01:45;75.78;;;32.60;;